createdAt,value
2023-02-22T00:04:59.313Z,59.72
2023-02-22T00:07:28.829Z,56.05
2023-02-22T00:09:57.214Z,57.55
2023-02-22T00:12:24.675Z,55.70
2023-02-22T00:14:55.049Z,58.90
2023-02-22T00:17:22.348Z,59.95
2023-02-22T00:19:50.076Z,59.28
2023-02-22T00:22:19.272Z,58.78
2023-02-22T00:24:48.391Z,66.13
2023-02-22T00:27:17.146Z,54.17
2023-02-22T00:29:47.072Z,61.72
2023-02-22T00:32:16.491Z,62.35
2023-02-22T00:34:45.429Z,58.90
2023-02-22T00:37:12.586Z,66.10
2023-02-22T00:39:40.441Z,64.10
2023-02-22T00:42:07.688Z,62.60
2023-02-22T00:44:35.048Z,61.88
2023-02-22T00:47:04.923Z,64.78
2023-02-22T00:49:32.769Z,63.80
2023-02-22T00:52:00.414Z,67.65
2023-02-22T00:54:28.575Z,63.60
2023-02-22T00:56:56.320Z,70.45
2023-02-22T00:59:24.858Z,66.97
2023-02-22T01:03:36.003Z,67.25
2023-02-22T01:06:04.304Z,69.53
2023-02-22T01:08:32.711Z,66.50
2023-02-22T01:11:00.214Z,71.50
2023-02-22T01:13:27.429Z,67.78
2023-02-22T01:15:56.757Z,68.63
2023-02-22T01:18:24.530Z,69.78
2023-02-22T01:20:52.894Z,73.05
2023-02-22T01:23:21.256Z,69.72
2023-02-22T01:25:51.690Z,68.18
2023-02-22T01:28:19.099Z,72.35
2023-02-22T01:30:47.644Z,69.13
2023-02-22T01:33:16.964Z,68.88
2023-02-22T01:35:46.434Z,75.90
2023-02-22T01:38:16.009Z,69.72
2023-02-22T01:40:48.483Z,65.32
2023-02-22T01:43:25.718Z,78.10
2023-02-22T01:46:02.154Z,73.40
2023-02-22T01:48:41.217Z,76.68
2023-02-22T01:51:22.446Z,70.72
2023-02-22T01:53:56.044Z,73.55
2023-02-22T01:56:26.877Z,73.40
2023-02-22T01:59:07.849Z,77.65
2023-02-22T02:01:38.289Z,73.78
2023-02-22T02:04:20.569Z,73.35
2023-02-22T02:06:48.594Z,77.25
2023-02-22T02:09:41.208Z,75.82
2023-02-22T02:12:12.682Z,71.68
2023-02-22T02:14:43.976Z,75.63
2023-02-22T02:17:19.700Z,74.47
2023-02-22T02:20:23.481Z,81.97
2023-02-22T02:23:25.250Z,73.20
2023-02-22T02:26:03.997Z,73.55
2023-02-22T02:28:57.116Z,74.38
2023-02-22T02:31:55.156Z,74.95
2023-02-22T02:34:49.990Z,76.88
2023-02-22T02:37:22.158Z,79.05
2023-02-22T02:40:04.915Z,76.47
2023-02-22T02:42:39.732Z,80.82
2023-02-22T02:45:45.078Z,73.95
2023-02-22T02:48:16.357Z,69.32
2023-02-22T02:50:48.185Z,73.00
2023-02-22T02:53:22.377Z,76.45
2023-02-22T02:55:51.084Z,74.65
2023-02-22T02:58:21.643Z,72.68
2023-02-22T03:03:34.809Z,73.70
2023-02-22T03:06:11.029Z,71.53
2023-02-22T03:08:43.849Z,77.13
2023-02-22T03:11:23.111Z,74.60
2023-02-22T03:14:28.458Z,78.97
2023-02-22T03:17:13.904Z,83.45
2023-02-22T03:19:59.734Z,83.18
2023-02-22T03:22:37.684Z,87.55
2023-02-22T03:25:17.721Z,84.72
2023-02-22T03:27:53.426Z,87.85
2023-02-22T03:30:37.462Z,96.63
2023-02-22T03:33:12.628Z,87.13
2023-02-22T03:35:49.402Z,87.38
2023-02-22T03:38:20.947Z,90.82
2023-02-22T03:40:55.894Z,98.28
2023-02-22T03:43:29.777Z,97.32
2023-02-22T03:46:03.979Z,107.18
2023-02-22T03:49:00.280Z,98.72
2023-02-22T03:51:32.394Z,101.23
2023-02-22T03:54:02.834Z,94.85
2023-02-22T03:56:47.597Z,103.15
2023-02-22T03:59:16.791Z,102.22
2023-02-22T04:01:45.578Z,108.00
2023-02-22T04:04:13.137Z,110.45
2023-02-22T04:06:48.273Z,100.40
2023-02-22T04:09:17.656Z,109.47
2023-02-22T04:11:47.385Z,102.30
2023-02-22T04:14:16.475Z,115.25
2023-02-22T04:16:43.866Z,104.63
2023-02-22T04:19:11.711Z,111.13
2023-02-22T04:21:40.175Z,110.10
2023-02-22T04:24:15.654Z,110.35
2023-02-22T04:26:43.372Z,107.60
2023-02-22T04:29:13.399Z,106.65
2023-02-22T04:31:42.577Z,108.38
2023-02-22T04:34:13.760Z,119.80
2023-02-22T04:36:47.325Z,100.60
2023-02-22T04:39:17.333Z,114.90
2023-02-22T04:41:48.593Z,101.50
2023-02-22T04:44:19.841Z,113.47
2023-02-22T04:46:47.473Z,117.28
2023-02-22T04:49:18.011Z,125.63
2023-02-22T04:51:47.581Z,132.63
2023-02-22T04:54:19.069Z,127.03
2023-02-22T04:56:47.806Z,158.15
2023-02-22T04:59:15.333Z,115.90
2023-02-22T05:01:47.409Z,120.13
2023-02-22T05:04:15.316Z,133.82
2023-02-22T05:06:43.215Z,123.40
2023-02-22T05:09:10.694Z,112.57
2023-02-22T05:11:37.906Z,151.40
2023-02-22T05:14:05.247Z,106.95
2023-02-22T05:16:32.673Z,104.40
2023-02-22T05:19:00.107Z,114.38
2023-02-22T05:21:27.296Z,106.18
2023-02-22T05:23:55.277Z,115.60
2023-02-22T05:26:22.305Z,111.25
2023-02-22T05:28:49.418Z,108.90
2023-02-22T05:31:19.947Z,100.05
2023-02-22T05:33:48.700Z,96.32
2023-02-22T05:36:16.866Z,101.55
2023-02-22T05:38:45.298Z,114.65
2023-02-22T05:41:13.711Z,104.45
2023-02-22T05:43:41.826Z,100.90
2023-02-22T05:46:09.378Z,87.63
2023-02-22T05:48:36.998Z,103.65
2023-02-22T05:51:05.088Z,104.72
2023-02-22T05:53:32.440Z,96.05
2023-02-22T05:55:59.849Z,97.07
2023-02-22T05:58:27.151Z,94.10
2023-02-22T06:00:55.183Z,97.25
2023-02-22T06:03:22.583Z,103.50
2023-02-22T06:05:49.741Z,99.13
2023-02-22T06:08:18.381Z,103.10
2023-02-22T06:10:51.226Z,98.22
2023-02-22T06:13:18.375Z,102.13
2023-02-22T06:15:51.201Z,96.55
2023-02-22T06:18:18.335Z,95.35
2023-02-22T06:20:46.488Z,96.22
2023-02-22T06:23:15.294Z,99.45
2023-02-22T06:25:42.843Z,97.03
2023-02-22T06:28:12.277Z,94.38
2023-02-22T06:30:41.721Z,109.70
2023-02-22T06:33:10.008Z,111.03
2023-02-22T06:35:37.465Z,97.82
2023-02-22T06:38:05.290Z,99.75
2023-02-22T06:40:32.662Z,96.53
2023-02-22T06:43:00.093Z,100.63
2023-02-22T06:45:27.795Z,105.40
2023-02-22T06:47:56.600Z,103.32
2023-02-22T06:50:29.169Z,98.55
2023-02-22T06:52:57.646Z,95.78
2023-02-22T06:55:30.863Z,100.30
2023-02-22T06:57:58.399Z,127.70
2023-02-22T07:00:27.373Z,101.40
2023-02-22T07:02:56.613Z,105.85
2023-02-22T07:05:25.175Z,103.43
2023-02-22T07:07:56.215Z,96.13
2023-02-22T07:10:29.428Z,101.75
2023-02-22T07:12:58.200Z,106.35
2023-02-22T07:15:28.283Z,99.93
2023-02-22T07:17:56.736Z,99.80
2023-02-22T07:20:25.728Z,110.63
2023-02-22T07:22:53.603Z,101.60
2023-02-22T07:25:23.261Z,99.43
2023-02-22T07:27:53.101Z,99.90
2023-02-22T07:30:28.176Z,112.47
2023-02-22T07:33:01.315Z,109.00
2023-02-22T07:35:31.430Z,115.15
2023-02-22T07:37:59.192Z,102.85
2023-02-22T07:40:27.707Z,110.75
2023-02-22T07:43:01.676Z,112.03
2023-02-22T07:45:31.917Z,102.97
2023-02-22T07:48:00.154Z,107.97
2023-02-22T07:50:30.937Z,112.57
2023-02-22T07:53:00.033Z,116.05
2023-02-22T07:55:29.751Z,108.25
2023-02-22T07:58:05.975Z,127.43
2023-02-22T08:00:39.637Z,115.60
2023-02-22T08:03:09.953Z,117.90
2023-02-22T08:05:39.338Z,125.40
2023-02-22T08:08:07.624Z,126.55
2023-02-22T08:10:36.042Z,118.90
2023-02-22T08:13:04.697Z,119.07
2023-02-22T08:15:35.107Z,123.65
2023-02-22T08:18:04.876Z,116.75
2023-02-22T08:20:35.921Z,115.93
2023-02-22T08:23:04.937Z,110.65
2023-02-22T08:25:33.144Z,111.05
2023-02-22T08:28:03.045Z,109.30
2023-02-22T08:30:38.225Z,124.85
2023-02-22T08:33:09.623Z,124.93
2023-02-22T08:35:37.175Z,101.75
2023-02-22T08:38:07.077Z,104.50
2023-02-22T08:40:37.344Z,114.15
2023-02-22T08:43:05.060Z,111.57
2023-02-22T08:45:32.920Z,104.15
2023-02-22T08:48:00.449Z,102.68
2023-02-22T08:50:31.037Z,106.18
2023-02-22T08:53:00.746Z,102.55
2023-02-22T08:55:32.746Z,103.10
2023-02-22T08:58:02.980Z,100.85
2023-02-22T09:00:33.925Z,96.97
2023-02-22T09:03:07.077Z,94.30
2023-02-22T09:05:37.607Z,99.10
2023-02-22T09:10:34.362Z,94.70
2023-02-22T09:13:02.608Z,96.35
2023-02-22T09:15:31.501Z,92.57
2023-02-22T09:17:59.560Z,85.75
2023-02-22T09:20:27.634Z,78.25
2023-02-22T09:22:55.405Z,86.28
2023-02-22T09:25:24.992Z,86.30
2023-02-22T09:27:53.580Z,86.10
2023-02-22T09:30:33.926Z,81.03
2023-02-22T09:33:04.685Z,75.65
2023-02-22T09:35:38.556Z,77.07
2023-02-22T09:38:12.013Z,76.45
2023-02-22T09:40:49.520Z,77.13
2023-02-22T09:43:35.927Z,74.05
2023-02-22T09:46:27.951Z,77.53
2023-02-22T09:49:06.000Z,68.95
2023-02-22T09:52:00.000Z,74.13
2023-02-22T09:54:30.062Z,73.80
2023-02-22T09:57:03.056Z,66.60
2023-02-22T09:59:35.565Z,68.00
2023-02-22T10:02:28.654Z,70.38
2023-02-22T10:05:18.003Z,70.32
2023-02-22T10:07:54.423Z,73.43
2023-02-22T10:10:25.413Z,75.30
2023-02-22T10:13:20.428Z,67.85
2023-02-22T10:16:27.354Z,70.03
2023-02-22T10:19:28.414Z,62.72
2023-02-22T10:22:20.294Z,65.30
2023-02-22T10:24:59.905Z,64.80
2023-02-22T10:27:49.512Z,63.80
2023-02-22T10:30:25.467Z,65.18
2023-02-22T10:33:16.852Z,58.80
2023-02-22T10:35:54.043Z,61.28
2023-02-22T10:38:32.683Z,56.85
2023-02-22T10:41:21.405Z,61.78
2023-02-22T10:43:49.080Z,57.75
2023-02-22T10:46:22.616Z,61.08
2023-02-22T10:48:54.700Z,54.67
2023-02-22T10:51:23.814Z,53.08
2023-02-22T10:54:22.124Z,52.10
2023-02-22T10:56:57.859Z,51.58
2023-02-22T10:59:32.919Z,47.70
2023-02-22T11:02:42.246Z,47.67
2023-02-22T11:05:31.612Z,50.00
2023-02-22T11:08:22.009Z,49.90
2023-02-22T11:10:51.194Z,52.10
2023-02-22T11:13:38.005Z,51.08
2023-02-22T11:16:21.425Z,50.72
2023-02-22T11:18:49.575Z,52.13
2023-02-22T11:21:23.129Z,47.67
2023-02-22T11:24:01.704Z,49.05
2023-02-22T11:26:36.362Z,51.40
2023-02-22T11:29:11.802Z,49.58
2023-02-22T11:31:45.602Z,50.03
2023-02-22T11:34:39.766Z,48.40
2023-02-22T11:37:25.970Z,47.30
2023-02-22T11:40:19.951Z,46.65
2023-02-22T11:42:47.968Z,44.28
2023-02-22T11:45:24.032Z,42.85
2023-02-22T11:48:02.952Z,51.05
2023-02-22T11:50:38.895Z,46.63
2023-02-22T11:53:37.164Z,49.72
2023-02-22T11:56:47.084Z,46.47
2023-02-22T11:59:36.621Z,44.47
2023-02-22T12:02:39.979Z,48.22
2023-02-22T12:05:46.564Z,50.00
2023-02-22T12:08:35.901Z,44.80
2023-02-22T12:11:18.291Z,40.35
2023-02-22T12:14:05.900Z,40.22
2023-02-22T12:16:46.684Z,39.40
2023-02-22T12:19:32.946Z,40.65
2023-02-22T12:22:18.435Z,42.03
2023-02-22T12:25:21.434Z,42.60
2023-02-22T12:27:59.292Z,41.50
2023-02-22T12:30:36.738Z,37.22
2023-02-22T12:33:45.997Z,37.20
2023-02-22T12:36:17.053Z,41.10
2023-02-22T12:38:59.451Z,38.20
2023-02-22T12:41:48.505Z,30.27
2023-02-22T12:44:21.977Z,31.33
2023-02-22T12:46:55.153Z,37.90
2023-02-22T12:49:29.110Z,31.15
2023-02-22T12:52:27.400Z,32.22
2023-02-22T12:55:29.094Z,28.20
2023-02-22T12:58:17.295Z,26.15
2023-02-22T13:00:51.481Z,30.33
2023-02-22T13:03:33.953Z,27.98
2023-02-22T13:06:29.777Z,30.98
2023-02-22T13:09:17.312Z,26.77
2023-02-22T13:11:59.890Z,28.23
2023-02-22T13:14:57.631Z,28.92
2023-02-22T13:17:34.705Z,30.90
2023-02-22T13:20:13.121Z,30.17
2023-02-22T13:23:03.450Z,47.35
2023-02-22T13:25:58.311Z,32.25
2023-02-22T13:28:44.048Z,32.22
2023-02-22T13:31:45.439Z,30.58
2023-02-22T13:34:33.644Z,33.97
2023-02-22T13:37:18.535Z,35.50
2023-02-22T13:39:55.542Z,33.80
2023-02-22T13:43:03.821Z,32.97
2023-02-22T13:46:00.122Z,32.55
2023-02-22T13:48:42.697Z,33.80
2023-02-22T13:51:09.827Z,35.53
2023-02-22T13:53:49.291Z,33.55
2023-02-22T13:56:19.489Z,36.65
2023-02-22T13:59:08.337Z,37.95
2023-02-22T14:01:41.718Z,38.10
2023-02-22T14:04:29.601Z,40.90
2023-02-22T14:07:00.780Z,41.80
2023-02-22T14:09:48.344Z,40.55
2023-02-22T14:12:30.997Z,36.08
2023-02-22T14:15:29.132Z,34.35
2023-02-22T14:17:57.174Z,41.55
2023-02-22T14:20:32.780Z,44.97
2023-02-22T14:23:32.826Z,38.75
2023-02-22T14:26:32.401Z,42.90
2023-02-22T14:29:08.806Z,41.40
2023-02-22T14:31:47.621Z,44.58
2023-02-22T14:34:20.694Z,37.00
2023-02-22T14:36:58.253Z,42.10
2023-02-22T14:39:39.806Z,35.95
2023-02-22T14:42:23.641Z,36.22
2023-02-22T14:45:17.290Z,36.05
2023-02-22T14:48:16.319Z,39.60
2023-02-22T14:50:51.042Z,34.50
2023-02-22T14:53:27.480Z,35.72
2023-02-22T14:56:02.764Z,36.75
2023-02-22T14:58:43.040Z,39.17
2023-02-22T15:01:31.259Z,36.80
2023-02-22T15:04:29.759Z,38.33
2023-02-22T15:07:00.468Z,34.90
2023-02-22T15:12:05.319Z,37.03
2023-02-22T15:14:37.894Z,38.33
2023-02-22T15:17:16.813Z,36.40
2023-02-22T15:19:48.834Z,34.03
2023-02-22T15:22:38.272Z,38.38
2023-02-22T15:25:09.110Z,35.95
2023-02-22T15:27:39.069Z,32.40
2023-02-22T15:30:23.654Z,37.10
2023-02-22T15:33:03.967Z,32.95
2023-02-22T15:35:33.894Z,34.65
2023-02-22T15:38:07.138Z,31.23
2023-02-22T15:40:36.312Z,38.80
2023-02-22T15:43:09.556Z,31.55
2023-02-22T15:45:46.097Z,39.70
2023-02-22T15:48:16.363Z,33.67
2023-02-22T15:51:11.568Z,38.03
2023-02-22T15:53:48.005Z,36.35
2023-02-22T15:56:24.706Z,35.83
2023-02-22T15:58:58.909Z,38.88
2023-02-22T16:01:27.386Z,34.00
2023-02-22T16:03:59.230Z,40.22
2023-02-22T16:06:29.806Z,37.00
2023-02-22T16:11:34.790Z,37.25
2023-02-22T16:14:07.130Z,41.67
2023-02-22T16:16:41.929Z,38.60
2023-02-22T16:19:42.112Z,38.63
2023-02-22T16:22:36.379Z,40.92
2023-02-22T16:25:16.592Z,41.13
2023-02-22T16:27:49.007Z,39.40
2023-02-22T16:30:24.784Z,37.28
2023-02-22T16:32:55.499Z,37.08
2023-02-22T16:35:28.731Z,41.25
2023-02-22T16:38:01.889Z,39.08
2023-02-22T16:40:50.605Z,35.33
2023-02-22T16:43:21.633Z,39.40
2023-02-22T16:45:48.846Z,38.40
2023-02-22T16:48:21.781Z,41.70
2023-02-22T16:50:51.710Z,40.90
2023-02-22T16:53:21.945Z,37.70
2023-02-22T16:55:50.789Z,38.47
2023-02-22T16:58:19.357Z,45.05
2023-02-22T17:00:48.054Z,40.92
2023-02-22T17:03:21.043Z,42.53
2023-02-22T17:05:48.456Z,43.67
2023-02-22T17:08:18.793Z,41.58
2023-02-22T17:10:47.496Z,46.35
2023-02-22T17:13:22.965Z,38.78
2023-02-22T17:15:55.181Z,38.83
2023-02-22T17:18:27.670Z,41.05
2023-02-22T17:20:57.143Z,43.42
2023-02-22T17:23:24.933Z,49.05
2023-02-22T17:25:54.577Z,49.60
2023-02-22T17:28:23.840Z,48.07
2023-02-22T17:30:54.267Z,60.10
2023-02-22T17:33:30.542Z,54.38
2023-02-22T17:35:59.805Z,57.50
2023-02-22T17:38:29.571Z,57.08
2023-02-22T17:41:01.749Z,59.50
2023-02-22T17:43:29.259Z,57.22
2023-02-22T17:46:02.091Z,61.88
2023-02-22T17:48:30.730Z,57.38
2023-02-22T17:50:58.409Z,57.95
2023-02-22T17:53:25.732Z,55.72
2023-02-22T17:55:53.499Z,58.00
2023-02-22T17:58:23.784Z,58.22
2023-02-22T18:00:52.684Z,55.67
2023-02-22T18:03:21.933Z,54.28
2023-02-22T18:05:51.338Z,56.55
2023-02-22T18:08:20.117Z,61.88
2023-02-22T18:10:47.915Z,57.72
2023-02-22T18:13:19.255Z,55.53
2023-02-22T18:15:47.702Z,59.63
2023-02-22T18:18:22.435Z,55.67
2023-02-22T18:20:51.642Z,62.40
2023-02-22T18:23:23.180Z,56.25
2023-02-22T18:26:09.308Z,56.38
2023-02-22T18:28:38.947Z,60.28
2023-02-22T18:31:15.415Z,60.53
2023-02-22T18:33:45.295Z,55.47
2023-02-22T18:36:13.629Z,56.85
2023-02-22T18:38:45.892Z,53.45
2023-02-22T18:41:16.391Z,56.03
2023-02-22T18:46:18.945Z,56.15
2023-02-22T18:48:50.335Z,53.28
2023-02-22T18:51:18.528Z,54.45
2023-02-22T18:53:50.879Z,55.83
2023-02-22T18:56:22.702Z,53.72
2023-02-22T18:58:58.867Z,56.35
2023-02-22T19:01:26.518Z,60.38
2023-02-22T19:03:57.125Z,58.97
2023-02-22T19:06:24.601Z,58.95
2023-02-22T19:08:52.188Z,65.47
2023-02-22T19:11:24.573Z,61.75
2023-02-22T19:13:56.764Z,59.38
2023-02-22T19:16:26.431Z,64.78
2023-02-22T19:18:57.559Z,63.17
2023-02-22T19:21:27.123Z,66.70
2023-02-22T19:24:01.058Z,66.97
2023-02-22T19:26:29.703Z,76.28
2023-02-22T19:29:01.936Z,74.68
2023-02-22T19:31:34.193Z,73.57
2023-02-22T19:34:05.297Z,83.07
2023-02-22T19:36:32.893Z,87.95
2023-02-22T19:39:06.056Z,85.57
2023-02-22T19:41:33.514Z,88.07
2023-02-22T19:44:02.506Z,103.20
2023-02-22T19:46:31.304Z,102.82
2023-02-22T19:48:58.908Z,112.55
2023-02-22T19:51:30.567Z,109.22
2023-02-22T19:54:00.572Z,120.45
2023-02-22T19:56:28.607Z,114.72
2023-02-22T19:58:58.076Z,119.88
2023-02-22T20:01:29.841Z,128.88
2023-02-22T20:04:04.261Z,129.98
2023-02-22T20:06:35.914Z,131.48
2023-02-22T20:09:03.971Z,136.88
2023-02-22T20:11:31.834Z,143.23
2023-02-22T20:14:01.262Z,125.18
2023-02-22T20:16:29.215Z,126.30
2023-02-22T20:18:56.529Z,142.60
2023-02-22T20:21:34.031Z,129.02
2023-02-22T20:24:08.562Z,135.60
2023-02-22T20:26:38.656Z,135.00
2023-02-22T20:29:07.365Z,149.85
2023-02-22T20:31:35.130Z,137.52
2023-02-22T20:34:03.116Z,144.63
2023-02-22T20:36:31.192Z,142.18
2023-02-22T20:39:00.712Z,147.45
2023-02-22T20:41:34.984Z,139.13
2023-02-22T20:44:03.400Z,140.60
2023-02-22T20:46:31.786Z,145.90
2023-02-22T20:49:01.335Z,151.38
2023-02-22T20:51:29.519Z,135.90
2023-02-22T20:54:00.957Z,136.52
2023-02-22T20:56:32.510Z,148.95
2023-02-22T20:59:02.550Z,145.00
2023-02-22T21:01:31.583Z,146.00
2023-02-22T21:04:01.169Z,145.15
2023-02-22T21:06:29.381Z,149.40
2023-02-22T21:09:00.243Z,139.05
2023-02-22T21:11:32.154Z,144.98
2023-02-22T21:14:00.800Z,137.20
2023-02-22T21:16:35.573Z,141.85
2023-02-22T21:19:05.770Z,144.73
2023-02-22T21:21:33.891Z,146.85
2023-02-22T21:24:01.979Z,152.80
2023-02-22T21:26:32.412Z,141.57
2023-02-22T21:31:28.656Z,136.85
2023-02-22T21:33:57.553Z,134.70
2023-02-22T21:36:25.718Z,135.50
2023-02-22T21:38:56.637Z,141.82
2023-02-22T21:41:32.319Z,143.45
2023-02-22T21:44:02.195Z,135.05
2023-02-22T21:46:30.081Z,145.70
2023-02-22T21:48:58.853Z,128.15
2023-02-22T21:51:33.319Z,131.93
2023-02-22T21:54:03.966Z,140.13
2023-02-22T21:56:34.828Z,146.88
2023-02-22T21:59:05.768Z,144.27
2023-02-22T22:01:39.237Z,140.73
2023-02-22T22:04:07.328Z,137.43
2023-02-22T22:06:36.443Z,132.05
2023-02-22T22:09:06.437Z,140.60
2023-02-22T22:11:33.717Z,143.38
2023-02-22T22:14:01.781Z,143.50
2023-02-22T22:16:30.272Z,131.95
2023-02-22T22:18:58.205Z,136.25
2023-02-22T22:21:25.853Z,140.52
2023-02-22T22:23:57.723Z,139.30
2023-02-22T22:26:26.199Z,143.38
2023-02-22T22:28:58.360Z,130.30
2023-02-22T22:31:27.710Z,145.93
2023-02-22T22:33:56.773Z,140.57
2023-02-22T22:36:27.132Z,140.15
2023-02-22T22:38:57.739Z,145.40
2023-02-22T22:41:28.193Z,148.80
2023-02-22T22:46:23.466Z,147.77
2023-02-22T22:48:50.706Z,146.15
2023-02-22T22:51:20.799Z,145.25
2023-02-22T22:53:50.678Z,149.20
2023-02-22T22:56:28.366Z,148.00
2023-02-22T22:58:58.054Z,150.82
2023-02-22T23:01:34.360Z,151.18
2023-02-22T23:04:04.590Z,137.82
2023-02-22T23:06:33.904Z,146.65
2023-02-22T23:09:11.616Z,144.52
2023-02-22T23:11:45.344Z,128.48
2023-02-22T23:14:20.406Z,145.60
2023-02-22T23:16:49.245Z,137.63
2023-02-22T23:19:21.886Z,139.98
2023-02-22T23:21:50.350Z,134.85
2023-02-22T23:24:21.363Z,132.75
2023-02-22T23:26:49.116Z,128.48
2023-02-22T23:29:21.977Z,142.20
2023-02-22T23:31:50.619Z,130.02
2023-02-22T23:34:21.513Z,131.70
2023-02-22T23:36:51.052Z,124.80
2023-02-22T23:39:22.276Z,137.70
2023-02-22T23:41:54.024Z,145.30
2023-02-22T23:44:22.058Z,137.85
2023-02-22T23:46:55.918Z,138.80
2023-02-22T23:49:34.765Z,131.07
2023-02-22T23:52:07.869Z,144.93
2023-02-22T23:54:36.725Z,127.18
2023-02-22T23:57:05.522Z,137.00
2023-02-22T23:59:33.791Z,135.32
